sensor_id;sensor_type;location;lat;lon;timestamp;temperature;humidity
17659;DHT22;8948;51.534;8.262;2023-06-14T00:03:36;19.60;43.30
17659;DHT22;8948;51.534;8.262;2023-06-14T00:08:37;19.50;44.20
17659;DHT22;8948;51.534;8.262;2023-06-14T00:13:38;19.30;42.80
17659;DHT22;8948;51.534;8.262;2023-06-14T00:18:38;19.20;43.10
17659;DHT22;8948;51.534;8.262;2023-06-14T00:23:39;19.10;43.70
17659;DHT22;8948;51.534;8.262;2023-06-14T00:28:39;19.10;43.10
17659;DHT22;8948;51.534;8.262;2023-06-14T00:33:41;19.00;43.30
17659;DHT22;8948;51.534;8.262;2023-06-14T00:38:41;19.00;43.30
17659;DHT22;8948;51.534;8.262;2023-06-14T00:43:42;19.00;43.60
17659;DHT22;8948;51.534;8.262;2023-06-14T00:48:43;18.90;43.50
17659;DHT22;8948;51.534;8.262;2023-06-14T00:53:44;18.80;43.70
17659;DHT22;8948;51.534;8.262;2023-06-14T00:58:47;18.70;44.60
17659;DHT22;8948;51.534;8.262;2023-06-14T01:03:47;18.80;45.50
17659;DHT22;8948;51.534;8.262;2023-06-14T01:08:52;18.80;46.60
17659;DHT22;8948;51.534;8.262;2023-06-14T01:13:59;18.90;46.10
17659;DHT22;8948;51.534;8.262;2023-06-14T01:19:02;19.00;49.10
17659;DHT22;8948;51.534;8.262;2023-06-14T01:24:03;19.00;49.10
17659;DHT22;8948;51.534;8.262;2023-06-14T01:29:04;18.90;45.90
17659;DHT22;8948;51.534;8.262;2023-06-14T01:34:05;18.80;47.30
17659;DHT22;8948;51.534;8.262;2023-06-14T01:39:06;18.60;49.70
17659;DHT22;8948;51.534;8.262;2023-06-14T01:44:07;18.40;47.60
17659;DHT22;8948;51.534;8.262;2023-06-14T01:49:08;18.20;47.70
17659;DHT22;8948;51.534;8.262;2023-06-14T01:54:09;17.90;48.30
17659;DHT22;8948;51.534;8.262;2023-06-14T01:59:10;17.90;49.10
17659;DHT22;8948;51.534;8.262;2023-06-14T02:04:10;17.80;48.60
17659;DHT22;8948;51.534;8.262;2023-06-14T02:09:11;17.70;49.20
17659;DHT22;8948;51.534;8.262;2023-06-14T02:14:11;17.50;49.50
17659;DHT22;8948;51.534;8.262;2023-06-14T02:19:12;17.40;49.70
17659;DHT22;8948;51.534;8.262;2023-06-14T02:24:13;17.40;49.70
17659;DHT22;8948;51.534;8.262;2023-06-14T02:29:14;17.20;50.40
17659;DHT22;8948;51.534;8.262;2023-06-14T02:34:15;17.00;51.80
17659;DHT22;8948;51.534;8.262;2023-06-14T02:39:18;16.90;52.30
17659;DHT22;8948;51.534;8.262;2023-06-14T02:44:24;16.90;53.90
17659;DHT22;8948;51.534;8.262;2023-06-14T02:49:28;17.10;52.90
17659;DHT22;8948;51.534;8.262;2023-06-14T02:54:30;17.10;51.50
17659;DHT22;8948;51.534;8.262;2023-06-14T02:59:30;17.10;53.80
17659;DHT22;8948;51.534;8.262;2023-06-14T03:04:31;17.20;54.00
17659;DHT22;8948;51.534;8.262;2023-06-14T03:09:37;17.30;53.90
17659;DHT22;8948;51.534;8.262;2023-06-14T03:14:38;17.40;51.80
17659;DHT22;8948;51.534;8.262;2023-06-14T03:19:39;17.30;51.50
17659;DHT22;8948;51.534;8.262;2023-06-14T03:24:41;17.20;51.90
17659;DHT22;8948;51.534;8.262;2023-06-14T03:29:43;17.20;53.50
17659;DHT22;8948;51.534;8.262;2023-06-14T03:34:43;17.30;53.30
17659;DHT22;8948;51.534;8.262;2023-06-14T03:39:45;17.30;50.90
17659;DHT22;8948;51.534;8.262;2023-06-14T03:44:47;17.30;54.60
17659;DHT22;8948;51.534;8.262;2023-06-14T03:49:48;17.40;53.70
17659;DHT22;8948;51.534;8.262;2023-06-14T03:54:49;17.50;53.80
17659;DHT22;8948;51.534;8.262;2023-06-14T03:59:49;17.60;53.90
17659;DHT22;8948;51.534;8.262;2023-06-14T04:04:50;17.70;51.30
17659;DHT22;8948;51.534;8.262;2023-06-14T04:09:51;17.70;52.30
17659;DHT22;8948;51.534;8.262;2023-06-14T04:14:52;17.80;51.00
17659;DHT22;8948;51.534;8.262;2023-06-14T04:19:53;17.90;52.40
17659;DHT22;8948;51.534;8.262;2023-06-14T04:24:54;18.00;52.20
17659;DHT22;8948;51.534;8.262;2023-06-14T04:29:56;18.10;52.10
17659;DHT22;8948;51.534;8.262;2023-06-14T04:34:57;18.10;52.80
17659;DHT22;8948;51.534;8.262;2023-06-14T04:39:59;18.10;52.20
17659;DHT22;8948;51.534;8.262;2023-06-14T04:45:00;18.10;52.20
17659;DHT22;8948;51.534;8.262;2023-06-14T04:50:01;18.20;50.90
17659;DHT22;8948;51.534;8.262;2023-06-14T04:55:03;18.00;50.20
17659;DHT22;8948;51.534;8.262;2023-06-14T05:00:05;17.80;50.70
17659;DHT22;8948;51.534;8.262;2023-06-14T05:05:08;17.50;51.00
17659;DHT22;8948;51.534;8.262;2023-06-14T05:10:09;17.40;51.60
17659;DHT22;8948;51.534;8.262;2023-06-14T05:15:10;17.40;52.60
17659;DHT22;8948;51.534;8.262;2023-06-14T05:20:11;17.30;53.10
17659;DHT22;8948;51.534;8.262;2023-06-14T05:25:11;17.40;52.80
17659;DHT22;8948;51.534;8.262;2023-06-14T05:30:12;17.40;52.50
17659;DHT22;8948;51.534;8.262;2023-06-14T05:35:13;17.50;53.70
17659;DHT22;8948;51.534;8.262;2023-06-14T05:40:14;17.60;52.30
17659;DHT22;8948;51.534;8.262;2023-06-14T05:45:17;17.70;52.40
17659;DHT22;8948;51.534;8.262;2023-06-14T05:50:17;17.80;51.90
17659;DHT22;8948;51.534;8.262;2023-06-14T05:55:18;18.10;51.80
17659;DHT22;8948;51.534;8.262;2023-06-14T06:00:19;18.20;51.60
17659;DHT22;8948;51.534;8.262;2023-06-14T06:05:20;18.30;51.80
17659;DHT22;8948;51.534;8.262;2023-06-14T06:10:20;18.40;50.70
17659;DHT22;8948;51.534;8.262;2023-06-14T06:15:21;18.60;51.50
17659;DHT22;8948;51.534;8.262;2023-06-14T06:20:23;18.70;51.00
17659;DHT22;8948;51.534;8.262;2023-06-14T06:25:28;18.70;51.10
17659;DHT22;8948;51.534;8.262;2023-06-14T06:30:29;18.80;51.00
17659;DHT22;8948;51.534;8.262;2023-06-14T06:35:30;18.90;50.20
17659;DHT22;8948;51.534;8.262;2023-06-14T06:40:31;19.00;50.10
17659;DHT22;8948;51.534;8.262;2023-06-14T06:45:31;19.20;50.40
17659;DHT22;8948;51.534;8.262;2023-06-14T06:50:33;19.20;49.70
17659;DHT22;8948;51.534;8.262;2023-06-14T06:55:34;19.40;49.20
17659;DHT22;8948;51.534;8.262;2023-06-14T07:00:34;19.60;48.70
17659;DHT22;8948;51.534;8.262;2023-06-14T07:05:35;19.70;46.30
17659;DHT22;8948;51.534;8.262;2023-06-14T07:10:35;19.80;47.20
17659;DHT22;8948;51.534;8.262;2023-06-14T07:15:37;19.90;47.80
17659;DHT22;8948;51.534;8.262;2023-06-14T07:20:39;20.10;46.30
17659;DHT22;8948;51.534;8.262;2023-06-14T07:25:40;20.30;47.30
17659;DHT22;8948;51.534;8.262;2023-06-14T07:30:41;20.50;46.60
17659;DHT22;8948;51.534;8.262;2023-06-14T07:35:41;20.50;45.70
17659;DHT22;8948;51.534;8.262;2023-06-14T07:40:42;20.70;46.20
17659;DHT22;8948;51.534;8.262;2023-06-14T07:45:42;21.00;46.70
17659;DHT22;8948;51.534;8.262;2023-06-14T07:50:43;20.80;45.70
17659;DHT22;8948;51.534;8.262;2023-06-14T07:55:43;20.70;45.60
17659;DHT22;8948;51.534;8.262;2023-06-14T08:00:44;20.80;45.30
17659;DHT22;8948;51.534;8.262;2023-06-14T08:05:45;20.90;44.90
17659;DHT22;8948;51.534;8.262;2023-06-14T08:10:45;21.00;46.20
17659;DHT22;8948;51.534;8.262;2023-06-14T08:15:46;20.90;46.90
17659;DHT22;8948;51.534;8.262;2023-06-14T08:20:46;20.90;45.30
17659;DHT22;8948;51.534;8.262;2023-06-14T08:25:47;20.70;46.60
17659;DHT22;8948;51.534;8.262;2023-06-14T08:30:48;21.10;45.30
17659;DHT22;8948;51.534;8.262;2023-06-14T08:35:48;21.40;45.60
17659;DHT22;8948;51.534;8.262;2023-06-14T08:40:50;21.60;44.80
17659;DHT22;8948;51.534;8.262;2023-06-14T08:45:58;21.80;44.50
17659;DHT22;8948;51.534;8.262;2023-06-14T08:51:00;22.10;45.40
17659;DHT22;8948;51.534;8.262;2023-06-14T08:56:05;22.10;44.00
17659;DHT22;8948;51.534;8.262;2023-06-14T09:01:06;22.10;43.90
17659;DHT22;8948;51.534;8.262;2023-06-14T09:06:09;22.20;45.10
17659;DHT22;8948;51.534;8.262;2023-06-14T09:11:15;22.70;44.50
17659;DHT22;8948;51.534;8.262;2023-06-14T09:16:16;23.00;42.90
17659;DHT22;8948;51.534;8.262;2023-06-14T09:21:17;22.90;44.30
17659;DHT22;8948;51.534;8.262;2023-06-14T09:26:19;22.80;44.00
17659;DHT22;8948;51.534;8.262;2023-06-14T09:31:21;23.00;43.00
17659;DHT22;8948;51.534;8.262;2023-06-14T09:36:25;23.30;42.60
17659;DHT22;8948;51.534;8.262;2023-06-14T09:41:39;23.50;42.00
17659;DHT22;8948;51.534;8.262;2023-06-14T09:46:40;23.50;42.50
17659;DHT22;8948;51.534;8.262;2023-06-14T09:51:45;23.50;41.50
17659;DHT22;8948;51.534;8.262;2023-06-14T09:56:48;23.80;41.90
17659;DHT22;8948;51.534;8.262;2023-06-14T10:01:51;24.00;41.30
17659;DHT22;8948;51.534;8.262;2023-06-14T10:06:52;24.20;42.30
17659;DHT22;8948;51.534;8.262;2023-06-14T10:11:53;24.30;41.20
17659;DHT22;8948;51.534;8.262;2023-06-14T10:17:07;24.30;41.90
17659;DHT22;8948;51.534;8.262;2023-06-14T10:22:18;24.30;40.00
17659;DHT22;8948;51.534;8.262;2023-06-14T10:27:20;24.20;40.50
17659;DHT22;8948;51.534;8.262;2023-06-14T10:32:24;24.60;41.80
17659;DHT22;8948;51.534;8.262;2023-06-14T10:37:25;24.70;42.10
17659;DHT22;8948;51.534;8.262;2023-06-14T10:42:32;24.90;39.90
17659;DHT22;8948;51.534;8.262;2023-06-14T10:47:34;24.60;43.30
17659;DHT22;8948;51.534;8.262;2023-06-14T10:52:39;25.10;39.70
17659;DHT22;8948;51.534;8.262;2023-06-14T10:57:53;25.20;42.80
17659;DHT22;8948;51.534;8.262;2023-06-14T11:09:20;25.80;38.70
17659;DHT22;8948;51.534;8.262;2023-06-14T11:14:23;25.70;40.20
17659;DHT22;8948;51.534;8.262;2023-06-14T11:19:24;25.70;40.60
17659;DHT22;8948;51.534;8.262;2023-06-14T11:24:25;26.00;39.80
17659;DHT22;8948;51.534;8.262;2023-06-14T11:29:26;26.10;40.80
17659;DHT22;8948;51.534;8.262;2023-06-14T11:34:29;26.00;38.60
17659;DHT22;8948;51.534;8.262;2023-06-14T11:39:29;26.00;38.00
17659;DHT22;8948;51.534;8.262;2023-06-14T11:44:31;26.20;37.50
17659;DHT22;8948;51.534;8.262;2023-06-14T11:49:36;25.90;38.70
17659;DHT22;8948;51.534;8.262;2023-06-14T11:54:37;26.10;38.00
17659;DHT22;8948;51.534;8.262;2023-06-14T11:59:38;26.30;39.20
17659;DHT22;8948;51.534;8.262;2023-06-14T12:04:49;26.10;37.30
17659;DHT22;8948;51.534;8.262;2023-06-14T12:14:59;26.90;37.80
17659;DHT22;8948;51.534;8.262;2023-06-14T12:20:05;27.20;37.10
17659;DHT22;8948;51.534;8.262;2023-06-14T12:25:08;27.40;38.20
17659;DHT22;8948;51.534;8.262;2023-06-14T12:30:10;26.60;37.60
17659;DHT22;8948;51.534;8.262;2023-06-14T12:35:10;26.80;37.60
17659;DHT22;8948;51.534;8.262;2023-06-14T12:40:12;26.60;38.20
17659;DHT22;8948;51.534;8.262;2023-06-14T12:45:13;27.20;36.00
17659;DHT22;8948;51.534;8.262;2023-06-14T12:50:14;27.40;36.60
17659;DHT22;8948;51.534;8.262;2023-06-14T12:55:14;27.30;35.70
17659;DHT22;8948;51.534;8.262;2023-06-14T13:00:15;27.80;34.90
17659;DHT22;8948;51.534;8.262;2023-06-14T13:05:18;28.10;34.40
17659;DHT22;8948;51.534;8.262;2023-06-14T13:10:18;27.60;36.80
17659;DHT22;8948;51.534;8.262;2023-06-14T13:15:19;27.40;36.30
17659;DHT22;8948;51.534;8.262;2023-06-14T13:20:20;27.70;35.60
17659;DHT22;8948;51.534;8.262;2023-06-14T13:25:20;28.20;34.50
17659;DHT22;8948;51.534;8.262;2023-06-14T13:30:22;28.40;35.30
17659;DHT22;8948;51.534;8.262;2023-06-14T13:35:23;28.30;34.80
17659;DHT22;8948;51.534;8.262;2023-06-14T13:40:24;27.90;35.90
17659;DHT22;8948;51.534;8.262;2023-06-14T13:45:25;28.50;33.20
17659;DHT22;8948;51.534;8.262;2023-06-14T13:50:25;28.40;36.00
17659;DHT22;8948;51.534;8.262;2023-06-14T13:55:26;28.90;35.30
17659;DHT22;8948;51.534;8.262;2023-06-14T14:00:27;29.00;34.90
17659;DHT22;8948;51.534;8.262;2023-06-14T14:05:27;28.90;32.90
17659;DHT22;8948;51.534;8.262;2023-06-14T14:10:29;29.20;33.70
17659;DHT22;8948;51.534;8.262;2023-06-14T14:15:30;29.50;34.00
17659;DHT22;8948;51.534;8.262;2023-06-14T14:20:32;29.40;34.10
17659;DHT22;8948;51.534;8.262;2023-06-14T14:25:33;29.40;32.90
17659;DHT22;8948;51.534;8.262;2023-06-14T14:30:33;29.40;32.60
17659;DHT22;8948;51.534;8.262;2023-06-14T14:35:34;29.30;33.50
17659;DHT22;8948;51.534;8.262;2023-06-14T14:40:35;28.50;34.10
17659;DHT22;8948;51.534;8.262;2023-06-14T14:45:36;28.80;33.30
17659;DHT22;8948;51.534;8.262;2023-06-14T14:50:37;27.60;35.10
17659;DHT22;8948;51.534;8.262;2023-06-14T14:55:37;28.00;36.50
17659;DHT22;8948;51.534;8.262;2023-06-14T15:00:39;28.70;34.40
17659;DHT22;8948;51.534;8.262;2023-06-14T15:05:40;28.70;33.80
17659;DHT22;8948;51.534;8.262;2023-06-14T15:10:41;27.90;34.10
17659;DHT22;8948;51.534;8.262;2023-06-14T15:15:41;27.60;35.20
17659;DHT22;8948;51.534;8.262;2023-06-14T15:20:42;27.20;35.90
17659;DHT22;8948;51.534;8.262;2023-06-14T15:25:43;27.10;36.50
17659;DHT22;8948;51.534;8.262;2023-06-14T15:30:44;27.60;35.90
17659;DHT22;8948;51.534;8.262;2023-06-14T15:35:44;27.60;36.10
17659;DHT22;8948;51.534;8.262;2023-06-14T15:40:45;28.10;36.80
17659;DHT22;8948;51.534;8.262;2023-06-14T15:45:46;28.30;35.30
17659;DHT22;8948;51.534;8.262;2023-06-14T15:50:46;28.80;35.30
17659;DHT22;8948;51.534;8.262;2023-06-14T15:55:47;28.50;34.80
17659;DHT22;8948;51.534;8.262;2023-06-14T16:00:48;27.90;36.70
17659;DHT22;8948;51.534;8.262;2023-06-14T16:05:48;28.00;35.80
17659;DHT22;8948;51.534;8.262;2023-06-14T16:10:49;28.00;35.90
17659;DHT22;8948;51.534;8.262;2023-06-14T16:15:49;27.70;36.20
17659;DHT22;8948;51.534;8.262;2023-06-14T16:20:50;27.70;36.70
17659;DHT22;8948;51.534;8.262;2023-06-14T16:25:51;27.80;36.60
17659;DHT22;8948;51.534;8.262;2023-06-14T16:30:51;27.50;35.90
17659;DHT22;8948;51.534;8.262;2023-06-14T16:35:52;27.10;35.70
17659;DHT22;8948;51.534;8.262;2023-06-14T16:40:53;27.00;36.30
17659;DHT22;8948;51.534;8.262;2023-06-14T16:45:53;27.00;36.90
17659;DHT22;8948;51.534;8.262;2023-06-14T16:50:54;27.10;37.30
17659;DHT22;8948;51.534;8.262;2023-06-14T16:55:55;27.10;36.70
17659;DHT22;8948;51.534;8.262;2023-06-14T17:00:55;27.00;36.70
17659;DHT22;8948;51.534;8.262;2023-06-14T17:05:59;26.90;37.40
17659;DHT22;8948;51.534;8.262;2023-06-14T17:10:59;26.70;36.80
17659;DHT22;8948;51.534;8.262;2023-06-14T17:16:01;26.70;36.90
17659;DHT22;8948;51.534;8.262;2023-06-14T17:21:02;26.70;37.00
17659;DHT22;8948;51.534;8.262;2023-06-14T17:26:03;26.60;36.70
17659;DHT22;8948;51.534;8.262;2023-06-14T17:31:03;26.70;37.50
17659;DHT22;8948;51.534;8.262;2023-06-14T17:36:04;26.60;38.40
17659;DHT22;8948;51.534;8.262;2023-06-14T17:41:05;26.50;36.80
17659;DHT22;8948;51.534;8.262;2023-06-14T17:46:09;26.30;37.50
17659;DHT22;8948;51.534;8.262;2023-06-14T17:51:10;26.30;39.30
17659;DHT22;8948;51.534;8.262;2023-06-14T17:56:10;26.00;38.20
17659;DHT22;8948;51.534;8.262;2023-06-14T18:01:11;25.80;38.40
17659;DHT22;8948;51.534;8.262;2023-06-14T18:06:12;25.80;38.10
17659;DHT22;8948;51.534;8.262;2023-06-14T18:11:12;25.80;38.60
17659;DHT22;8948;51.534;8.262;2023-06-14T18:16:13;25.80;38.60
17659;DHT22;8948;51.534;8.262;2023-06-14T18:21:16;25.70;39.60
17659;DHT22;8948;51.534;8.262;2023-06-14T18:26:17;25.80;39.60
17659;DHT22;8948;51.534;8.262;2023-06-14T18:31:18;25.80;39.50
17659;DHT22;8948;51.534;8.262;2023-06-14T18:36:18;25.80;39.80
17659;DHT22;8948;51.534;8.262;2023-06-14T18:41:20;25.70;40.20
17659;DHT22;8948;51.534;8.262;2023-06-14T18:46:22;25.60;40.00
17659;DHT22;8948;51.534;8.262;2023-06-14T18:51:23;25.50;40.20
17659;DHT22;8948;51.534;8.262;2023-06-14T18:56:23;25.20;40.30
17659;DHT22;8948;51.534;8.262;2023-06-14T19:01:24;25.00;40.80
17659;DHT22;8948;51.534;8.262;2023-06-14T19:06:24;24.80;41.20
17659;DHT22;8948;51.534;8.262;2023-06-14T19:11:26;24.70;41.60
17659;DHT22;8948;51.534;8.262;2023-06-14T19:16:26;24.50;41.40
17659;DHT22;8948;51.534;8.262;2023-06-14T19:21:27;24.30;41.90
17659;DHT22;8948;51.534;8.262;2023-06-14T19:26:27;24.20;42.60
17659;DHT22;8948;51.534;8.262;2023-06-14T19:31:29;24.10;43.10
17659;DHT22;8948;51.534;8.262;2023-06-14T19:36:30;24.00;42.90
17659;DHT22;8948;51.534;8.262;2023-06-14T19:41:31;23.80;44.30
17659;DHT22;8948;51.534;8.262;2023-06-14T19:46:32;23.60;43.90
17659;DHT22;8948;51.534;8.262;2023-06-14T19:51:32;23.40;44.50
17659;DHT22;8948;51.534;8.262;2023-06-14T19:56:33;23.20;45.40
17659;DHT22;8948;51.534;8.262;2023-06-14T20:01:33;23.10;46.00
17659;DHT22;8948;51.534;8.262;2023-06-14T20:06:34;22.80;46.30
17659;DHT22;8948;51.534;8.262;2023-06-14T20:11:35;22.70;46.70
17659;DHT22;8948;51.534;8.262;2023-06-14T20:16:35;22.40;47.00
17659;DHT22;8948;51.534;8.262;2023-06-14T20:21:36;22.30;47.50
17659;DHT22;8948;51.534;8.262;2023-06-14T20:26:37;22.10;47.80
17659;DHT22;8948;51.534;8.262;2023-06-14T20:31:38;22.00;48.20
17659;DHT22;8948;51.534;8.262;2023-06-14T20:36:38;21.80;48.90
17659;DHT22;8948;51.534;8.262;2023-06-14T20:41:39;21.60;49.10
17659;DHT22;8948;51.534;8.262;2023-06-14T20:46:39;21.50;49.60
17659;DHT22;8948;51.534;8.262;2023-06-14T20:51:42;21.30;49.90
17659;DHT22;8948;51.534;8.262;2023-06-14T20:56:43;21.20;50.30
17659;DHT22;8948;51.534;8.262;2023-06-14T21:01:43;21.00;50.40
17659;DHT22;8948;51.534;8.262;2023-06-14T21:06:44;20.90;50.70
17659;DHT22;8948;51.534;8.262;2023-06-14T21:11:45;20.80;50.90
17659;DHT22;8948;51.534;8.262;2023-06-14T21:16:45;20.70;51.20
17659;DHT22;8948;51.534;8.262;2023-06-14T21:21:46;20.60;51.40
17659;DHT22;8948;51.534;8.262;2023-06-14T21:26:46;20.50;51.40
17659;DHT22;8948;51.534;8.262;2023-06-14T21:31:47;20.40;51.40
17659;DHT22;8948;51.534;8.262;2023-06-14T21:36:48;20.30;51.60
17659;DHT22;8948;51.534;8.262;2023-06-14T21:41:52;20.20;51.80
17659;DHT22;8948;51.534;8.262;2023-06-14T21:46:54;20.10;51.90
17659;DHT22;8948;51.534;8.262;2023-06-14T21:51:55;20.00;52.00
17659;DHT22;8948;51.534;8.262;2023-06-14T21:56:55;19.90;52.20
17659;DHT22;8948;51.534;8.262;2023-06-14T22:01:56;19.80;52.40
17659;DHT22;8948;51.534;8.262;2023-06-14T22:06:56;19.70;52.50
17659;DHT22;8948;51.534;8.262;2023-06-14T22:11:57;19.50;52.70
17659;DHT22;8948;51.534;8.262;2023-06-14T22:17:01;19.30;52.80
17659;DHT22;8948;51.534;8.262;2023-06-14T22:22:03;19.10;53.20
17659;DHT22;8948;51.534;8.262;2023-06-14T22:27:04;19.10;53.30
17659;DHT22;8948;51.534;8.262;2023-06-14T22:32:05;19.00;53.40
17659;DHT22;8948;51.534;8.262;2023-06-14T22:37:06;18.90;53.50
17659;DHT22;8948;51.534;8.262;2023-06-14T22:42:08;18.80;53.80
17659;DHT22;8948;51.534;8.262;2023-06-14T22:47:09;18.80;53.90
17659;DHT22;8948;51.534;8.262;2023-06-14T22:52:10;18.70;54.00
17659;DHT22;8948;51.534;8.262;2023-06-14T22:57:11;18.50;54.40
17659;DHT22;8948;51.534;8.262;2023-06-14T23:02:17;18.50;54.40
17659;DHT22;8948;51.534;8.262;2023-06-14T23:07:18;18.40;54.80
17659;DHT22;8948;51.534;8.262;2023-06-14T23:12:26;18.30;55.00
17659;DHT22;8948;51.534;8.262;2023-06-14T23:17:29;18.20;55.10
17659;DHT22;8948;51.534;8.262;2023-06-14T23:22:30;18.10;55.30
17659;DHT22;8948;51.534;8.262;2023-06-14T23:27:35;17.90;55.40
17659;DHT22;8948;51.534;8.262;2023-06-14T23:32:37;17.90;55.60
17659;DHT22;8948;51.534;8.262;2023-06-14T23:37:39;17.80;55.50
17659;DHT22;8948;51.534;8.262;2023-06-14T23:42:41;17.80;55.60
17659;DHT22;8948;51.534;8.262;2023-06-14T23:47:42;17.70;55.80
17659;DHT22;8948;51.534;8.262;2023-06-14T23:52:42;17.60;55.80
17659;DHT22;8948;51.534;8.262;2023-06-14T23:57:43;17.60;56.10
